Time;durP1;ratioP1;P1;durP2;ratioP2;P2;SDS_P1;SDS_P2;PMS_P1;PMS_P2;Temp;Humidity;BMP_temperature;BMP_pressure;BME280_temperature;BME280_humidity;BME280_pressure;Samples;Min_cycle;Max_cycle;Signal;HPM_P1;HPM_P2
2022/07/09 00:00:32;;;;;;;14.18;5.93;;;;;;;19.47;90.97;94782.22;5131768;27;20175;-76
2022/07/09 00:02:57;;;;;;;4.20;3.80;;;;;;;19.45;90.13;94781.72;5126927;28;20180;-76
2022/07/09 00:05:23;;;;;;;6.40;3.80;;;;;;;19.42;90.25;94793.72;5118266;28;20174;-76
2022/07/09 00:07:48;;;;;;;7.30;5.03;;;;;;;19.40;90.20;94792.38;5131730;28;20184;-76
2022/07/09 00:10:14;;;;;;;7.75;4.78;;;;;;;19.37;90.37;94790.28;5132074;28;20179;-76
2022/07/09 00:12:39;;;;;;;3.88;2.97;;;;;;;19.37;89.38;94790.28;5131762;28;20172;-76
2022/07/09 00:15:06;;;;;;;5.03;4.35;;;;;;;19.31;89.73;94791.31;5131665;28;20672;-76
2022/07/09 00:17:31;;;;;;;3.63;3.00;;;;;;;19.23;89.96;94776.63;5131449;28;20236;-76
2022/07/09 00:19:56;;;;;;;5.13;3.83;;;;;;;19.13;89.78;94757.94;5131491;28;20200;-76
2022/07/09 00:22:22;;;;;;;5.60;3.72;;;;;;;19.36;90.17;94784.13;5131430;28;20179;-76
2022/07/09 00:24:48;;;;;;;4.45;3.08;;;;;;;19.37;90.04;94782.25;5131654;28;20563;-76
2022/07/09 00:27:13;;;;;;;34.38;19.95;;;;;;;19.35;89.91;94779.84;5094339;28;20958;-76
2022/07/09 00:29:39;;;;;;;34.80;21.48;;;;;;;19.17;89.77;94738.47;5110708;28;20618;-76
2022/07/09 00:32:05;;;;;;;7.00;5.05;;;;;;;19.38;90.06;94778.50;5110795;28;20177;-76
2022/07/09 00:34:31;;;;;;;3.25;2.95;;;;;;;19.38;89.81;94775.81;5111100;28;20180;-75
2022/07/09 00:36:57;;;;;;;7.35;4.82;;;;;;;19.38;89.43;94767.81;5111367;28;20253;-76
2022/07/09 00:39:22;;;;;;;2.45;2.25;;;;;;;19.19;88.97;94762.25;5119849;28;20556;-76
2022/07/09 00:41:48;;;;;;;5.88;4.18;;;;;;;19.10;89.58;94772.63;5110771;28;20173;-76
2022/07/09 00:44:13;;;;;;;2.58;2.38;;;;;;;19.08;90.43;94764.09;5109463;28;20264;-76
2022/07/09 00:46:39;;;;;;;3.70;3.20;;;;;;;19.12;90.16;94761.66;5131105;28;20195;-76
2022/07/09 00:49:06;;;;;;;4.28;3.22;;;;;;;19.12;90.14;94762.47;5131663;28;20168;-76
2022/07/09 00:51:31;;;;;;;6.40;3.30;;;;;;;19.12;89.92;94761.66;5116473;28;20230;-76
2022/07/09 00:53:58;;;;;;;2.85;2.50;;;;;;;19.09;90.11;94765.69;5110955;28;20169;-76
2022/07/09 00:56:24;;;;;;;2.63;2.42;;;;;;;18.82;90.94;94759.78;5110902;28;20181;-76
2022/07/09 00:58:51;;;;;;;4.80;2.63;;;;;;;18.65;91.05;94721.88;5110715;28;20193;-76
2022/07/09 01:01:17;;;;;;;3.17;2.47;;;;;;;18.86;91.01;94739.50;5110744;28;20195;-76
2022/07/09 01:03:43;;;;;;;7.78;5.13;;;;;;;18.85;90.98;94740.59;5110518;28;20177;-75
2022/07/09 01:06:08;;;;;;;5.90;3.00;;;;;;;18.82;90.69;94749.13;5110516;28;20180;-75
2022/07/09 01:08:33;;;;;;;3.67;2.40;;;;;;;18.75;90.60;94735.25;5111917;28;20634;-75
2022/07/09 01:11:00;;;;;;;2.60;2.40;;;;;;;18.80;90.48;94745.91;5114270;28;20250;-75
2022/07/09 01:13:26;;;;;;;6.45;4.45;;;;;;;18.62;90.86;94730.41;5114056;28;20180;-75
2022/07/09 01:15:51;;;;;;;3.60;2.78;;;;;;;18.77;91.17;94747.22;5113855;28;20237;-75
2022/07/09 01:18:18;;;;;;;3.25;2.42;;;;;;;18.27;91.15;94721.22;5113759;28;20195;-75
2022/07/09 01:20:43;;;;;;;3.65;2.70;;;;;;;18.14;92.97;94724.38;5113914;28;20610;-75
2022/07/09 01:23:09;;;;;;;3.28;2.40;;;;;;;18.29;93.17;94736.94;5113649;28;20177;-74
2022/07/09 01:25:45;;;;;;;5.43;3.38;;;;;;;18.35;93.62;94738.56;5122840;27;20657;-75
2022/07/09 01:28:11;;;;;;;3.97;3.58;;;;;;;18.46;93.37;94735.66;5134245;27;20258;-75
2022/07/09 01:30:39;;;;;;;2.92;2.35;;;;;;;18.60;92.93;94733.31;5134212;27;20180;-75
2022/07/09 01:33:05;;;;;;;2.63;2.42;;;;;;;18.66;91.93;94732.28;5134287;27;20172;-75
2022/07/09 01:35:30;;;;;;;5.35;3.22;;;;;;;18.72;91.29;94725.88;5134146;27;20613;-75
2022/07/09 01:37:56;;;;;;;4.78;2.92;;;;;;;18.64;90.86;94725.59;5134158;27;21037;-75
2022/07/09 01:40:23;;;;;;;7.78;4.72;;;;;;;18.49;91.13;94702.38;5133773;27;20224;-75
2022/07/09 01:42:48;;;;;;;5.45;3.83;;;;;;;18.70;91.46;94727.22;5134132;27;20232;-75
2022/07/09 01:45:15;;;;;;;5.85;4.13;;;;;;;18.76;91.27;94720.84;5133990;27;20172;-75
2022/07/09 01:47:41;;;;;;;4.47;3.45;;;;;;;18.71;90.63;94712.81;5133846;27;20187;-75
2022/07/09 01:50:07;;;;;;;5.18;2.70;;;;;;;18.61;90.79;94720.78;5123928;27;20177;-75
2022/07/09 01:52:33;;;;;;;4.90;2.75;;;;;;;18.51;91.43;94732.19;5113095;28;20256;-75
2022/07/09 01:54:59;;;;;;;4.60;3.10;;;;;;;18.48;91.54;94722.09;5113137;28;20310;-75
2022/07/09 01:57:25;;;;;;;3.85;2.60;;;;;;;18.46;91.76;94711.69;5113209;28;20196;-75
2022/07/09 01:59:50;;;;;;;6.40;3.00;;;;;;;18.62;91.66;94731.19;5112809;28;20197;-75
2022/07/09 02:02:15;;;;;;;4.63;3.20;;;;;;;18.65;91.59;94727.22;5112957;28;20173;-74
2022/07/09 02:04:41;;;;;;;5.18;3.38;;;;;;;18.60;91.27;94716.53;5112921;28;20650;-75
2022/07/09 02:07:06;;;;;;;4.95;2.78;;;;;;;18.75;91.41;94724.56;5122849;27;20271;-75
2022/07/09 02:09:32;;;;;;;4.70;2.70;;;;;;;18.79;91.47;94725.63;5133396;27;20653;-75
2022/07/09 02:11:57;;;;;;;3.72;2.95;;;;;;;18.79;90.54;94725.63;5133425;27;20229;-75
2022/07/09 02:14:22;;;;;;;5.97;4.22;;;;;;;18.82;90.49;94735.78;5133349;27;20184;-75
2022/07/09 02:16:48;;;;;;;4.78;2.80;;;;;;;18.84;90.68;94731.78;5133635;27;20184;-75
2022/07/09 02:19:14;;;;;;;5.15;3.33;;;;;;;18.82;90.48;94736.59;5133026;27;20196;-75
2022/07/09 02:21:40;;;;;;;8.82;5.90;;;;;;;18.73;90.90;94734.69;5132924;27;20229;-75
2022/07/09 02:24:06;;;;;;;3.35;2.65;;;;;;;18.76;90.80;94737.66;5133249;27;20177;-75
2022/07/09 02:26:31;;;;;;;2.30;2.03;;;;;;;18.46;90.16;94695.69;5133614;27;20188;-75
2022/07/09 02:28:57;;;;;;;4.85;2.80;;;;;;;18.63;90.44;94748.00;5133509;27;20251;-75
2022/07/09 02:31:22;;;;;;;2.10;1.90;;;;;;;18.61;90.61;94744.78;5117841;27;20172;-75
2022/07/09 02:33:48;;;;;;;4.03;2.50;;;;;;;18.63;90.27;94738.13;5112393;28;20169;-75
2022/07/09 02:36:13;;;;;;;6.35;2.72;;;;;;;18.58;89.73;94745.34;5112240;28;20181;-75
2022/07/09 02:38:39;;;;;;;4.00;2.50;;;;;;;18.55;90.36;94740.50;5121372;27;20262;-75
2022/07/09 02:41:04;;;;;;;6.65;2.58;;;;;;;18.60;90.57;94753.84;5112152;28;20229;-75
2022/07/09 02:43:30;;;;;;;3.95;2.10;;;;;;;18.61;91.01;94744.78;5112236;28;20572;-75
2022/07/09 02:45:55;;;;;;;2.50;2.30;;;;;;;18.47;91.03;94726.63;5112117;28;20718;-75
2022/07/09 02:48:22;;;;;;;4.95;2.40;;;;;;;18.63;91.05;94748.81;5112244;28;20181;-75
2022/07/09 02:50:49;;;;;;;5.40;3.00;;;;;;;18.62;91.01;94749.06;5118689;27;20172;-74
2022/07/09 02:53:15;;;;;;;14.85;10.32;;;;;;;18.64;90.67;94749.59;5132498;27;20176;-75
2022/07/09 02:55:41;;;;;;;16.70;10.40;;;;;;;18.45;90.92;94726.06;5132401;27;20176;-75
2022/07/09 02:58:06;;;;;;;12.88;8.65;;;;;;;18.63;90.73;94751.47;5132443;27;20259;-75
2022/07/09 03:00:32;;;;;;;9.02;5.10;;;;;;;18.64;90.62;94749.59;5132858;27;20987;-75
2022/07/09 03:02:57;;;;;;;11.70;7.20;;;;;;;18.46;90.61;94757.00;5132149;27;20231;-75
2022/07/09 03:05:23;;;;;;;22.75;13.93;;;;;;;18.48;90.98;94757.53;5132219;27;21691;-74
2022/07/09 03:07:48;;;;;;;18.63;12.27;;;;;;;18.48;91.32;94756.75;5132326;27;20172;-75
2022/07/09 03:10:14;;;;;;;18.33;12.70;;;;;;;18.53;90.93;94762.06;5132235;27;20259;-75
2022/07/09 03:12:40;;;;;;;6.50;4.30;;;;;;;18.57;89.82;94760.53;5132193;27;20233;-74
2022/07/09 03:15:07;;;;;;;9.88;6.35;;;;;;;18.58;90.02;94766.66;5132172;27;20593;-75
2022/07/09 03:17:32;;;;;;;3.13;2.83;;;;;;;18.54;90.38;94755.69;5132114;27;20700;-75
2022/07/09 03:19:58;;;;;;;9.13;6.20;;;;;;;18.54;90.39;94760.22;5132011;27;20291;-75
2022/07/09 03:22:23;;;;;;;7.28;5.93;;;;;;;18.59;90.64;94760.28;5121583;27;20200;-74
2022/07/09 03:24:49;;;;;;;2.63;2.42;;;;;;;18.59;90.54;94753.09;5111658;28;20173;-75
2022/07/09 03:27:14;;;;;;;5.15;4.18;;;;;;;18.44;90.97;94758.31;5111439;28;20173;-75
2022/07/09 03:29:39;;;;;;;3.42;3.13;;;;;;;18.46;91.17;94757.00;5111420;28;20624;-75
2022/07/09 03:32:06;;;;;;;8.30;5.45;;;;;;;18.54;91.26;94762.88;5110319;28;20646;-74
2022/07/09 03:34:31;;;;;;;28.95;16.50;;;;;;;18.51;91.19;94756.19;5111313;28;20199;-75
2022/07/09 03:36:57;;;;;;;21.83;14.00;;;;;;;18.56;90.96;94755.44;5111521;28;20655;-75
2022/07/09 03:39:22;;;;;;;2.53;2.33;;;;;;;18.38;91.45;94754.03;5111093;28;20196;-74
2022/07/09 03:41:48;;;;;;;11.23;8.07;;;;;;;18.21;92.96;94751.59;5111087;28;20230;-74
2022/07/09 03:44:13;;;;;;;6.85;5.68;;;;;;;18.29;92.67;94750.28;5111111;28;20256;-75
2022/07/09 03:46:39;;;;;;;7.30;3.45;;;;;;;18.37;91.92;94745.25;5092796;28;20260;-74
2022/07/09 03:49:05;;;;;;;8.00;4.70;;;;;;;18.47;92.22;94753.28;5110940;28;20196;-75
2022/07/09 03:51:30;;;;;;;4.60;3.80;;;;;;;18.49;91.71;94755.69;5121741;27;20247;-74
2022/07/09 03:53:55;;;;;;;5.13;3.00;;;;;;;18.52;91.63;94757.00;5131624;27;20171;-75
2022/07/09 03:56:21;;;;;;;6.80;3.75;;;;;;;18.42;90.88;94731.13;5131168;27;20180;-75
2022/07/09 03:58:46;;;;;;;4.32;3.60;;;;;;;18.58;90.84;94762.13;5130629;27;20733;-74
2022/07/09 04:01:12;;;;;;;6.15;3.17;;;;;;;18.63;90.57;94756.81;5116769;27;20177;-75
2022/07/09 04:03:37;;;;;;;5.32;4.15;;;;;;;18.63;90.41;94764.81;5105233;28;20173;-75
2022/07/09 04:06:03;;;;;;;4.65;3.30;;;;;;;18.63;90.59;94764.00;5110589;28;20177;-76
2022/07/09 04:08:29;;;;;;;4.43;2.88;;;;;;;18.66;90.62;94766.16;5119660;27;20160;-76
2022/07/09 04:10:54;;;;;;;3.40;3.10;;;;;;;18.62;90.97;94767.72;5122345;28;20534;-76
2022/07/09 04:13:19;;;;;;;7.03;4.70;;;;;;;18.59;91.57;94762.94;5131134;28;20176;-75
2022/07/09 04:15:45;;;;;;;4.70;3.35;;;;;;;18.60;91.43;94765.31;5102083;28;20621;-75
2022/07/09 04:18:12;;;;;;;5.38;3.70;;;;;;;18.64;91.08;94769.06;5101413;28;20196;-75
2022/07/09 04:20:37;;;;;;;6.38;3.35;;;;;;;18.70;91.14;94780.56;5092717;28;20177;-75
2022/07/09 04:23:03;;;;;;;7.40;3.78;;;;;;;18.70;91.48;94777.88;5102383;28;20673;-75
2022/07/09 04:25:28;;;;;;;6.43;3.50;;;;;;;18.74;91.70;94774.44;5099406;28;20307;-75
2022/07/09 04:27:54;;;;;;;3.00;2.80;;;;;;;18.78;90.77;94777.38;5100900;28;20222;-75
2022/07/09 04:30:19;;;;;;;6.03;2.85;;;;;;;18.77;90.83;94781.91;5095233;28;20638;-75
2022/07/09 04:32:44;;;;;;;5.80;2.65;;;;;;;18.75;90.73;94780.59;5099871;28;20196;-75
2022/07/09 04:35:10;;;;;;;2.97;2.67;;;;;;;18.70;90.68;94769.88;5106240;28;20188;-75
2022/07/09 04:37:36;;;;;;;3.58;2.83;;;;;;;18.59;90.32;94770.94;5110126;28;20177;-75
2022/07/09 04:40:01;;;;;;;2.95;2.65;;;;;;;18.61;91.42;94777.59;5112610;28;20211;-75
2022/07/09 04:42:27;;;;;;;3.15;2.85;;;;;;;18.45;91.17;94770.59;5110279;28;20294;-75
2022/07/09 04:44:52;;;;;;;4.90;3.20;;;;;;;18.34;91.98;94763.59;5110659;28;20567;-75
2022/07/09 04:47:18;;;;;;;5.88;3.53;;;;;;;18.48;92.70;94770.06;5112370;28;20192;-75
2022/07/09 04:49:43;;;;;;;3.38;2.83;;;;;;;18.58;91.91;94766.66;5114778;28;20876;-75
2022/07/09 04:52:08;;;;;;;3.35;3.05;;;;;;;18.64;91.71;94765.59;5114559;28;20191;-75
2022/07/09 04:54:34;;;;;;;2.67;2.47;;;;;;;18.63;91.70;94770.13;5108274;27;20173;-74
2022/07/09 04:56:59;;;;;;;7.65;4.30;;;;;;;18.48;92.31;94740.75;5110069;27;20242;-75
2022/07/09 04:59:25;;;;;;;8.57;5.20;;;;;;;18.66;92.14;94750.97;5103718;27;20557;-75
2022/07/09 05:01:50;;;;;;;4.70;2.92;;;;;;;18.74;91.66;94765.63;5108781;27;20719;-75
2022/07/09 05:04:15;;;;;;;33.35;19.88;;;;;;;18.84;91.71;94771.00;5106541;27;20188;-76
2022/07/09 05:06:41;;;;;;;15.52;10.25;;;;;;;18.94;91.67;94771.00;5109895;27;20718;-76
2022/07/09 05:09:08;;;;;;;6.28;4.22;;;;;;;19.00;91.10;94774.50;5105512;28;20178;-76
2022/07/09 05:11:33;;;;;;;6.72;4.38;;;;;;;19.04;91.48;94778.22;5110190;28;20688;-75
2022/07/09 05:13:59;;;;;;;39.55;23.00;;;;;;;19.08;90.73;94780.09;5114176;28;20180;-74
2022/07/09 05:16:24;;;;;;;15.75;10.45;;;;;;;19.11;90.43;94776.88;5114104;28;20176;-74
2022/07/09 05:18:50;;;;;;;18.20;11.15;;;;;;;19.19;90.61;94781.72;5113950;28;20660;-74
2022/07/09 05:21:15;;;;;;;2.72;2.53;;;;;;;19.16;89.46;94782.25;5114213;28;20175;-75
2022/07/09 05:23:40;;;;;;;25.20;14.48;;;;;;;19.08;89.96;94771.28;5114173;28;20173;-75
2022/07/09 05:26:06;;;;;;;5.72;3.30;;;;;;;19.17;89.19;94783.84;5113659;28;20173;-75
2022/07/09 05:28:31;;;;;;;3.38;3.08;;;;;;;19.19;89.05;94794.25;5112861;28;20167;-75
2022/07/09 05:30:57;;;;;;;4.35;3.75;;;;;;;19.14;89.41;94786.22;5112869;28;20165;-75
2022/07/09 05:33:23;;;;;;;13.15;9.18;;;;;;;19.19;89.89;94792.41;5112705;28;20161;-75
2022/07/09 05:35:48;;;;;;;5.90;4.15;;;;;;;19.16;89.89;94797.44;5113045;28;20169;-74
2022/07/09 05:38:13;;;;;;;12.88;8.73;;;;;;;19.16;90.33;94794.78;5111995;28;20666;-74
2022/07/09 05:40:39;;;;;;;4.10;2.30;;;;;;;19.11;89.83;94800.13;5097824;28;20240;-75
2022/07/09 05:43:04;;;;;;;7.38;4.07;;;;;;;19.13;89.57;94806.78;5099467;28;20260;-74
2022/07/09 05:45:30;;;;;;;3.40;2.47;;;;;;;19.13;89.99;94801.44;5100845;28;20182;-75
2022/07/09 05:47:55;;;;;;;4.13;2.97;;;;;;;19.14;90.48;94797.72;5094383;28;20170;-74
2022/07/09 05:50:21;;;;;;;2.40;2.20;;;;;;;19.11;90.13;94803.56;5113572;28;20169;-75
2022/07/09 05:52:47;;;;;;;4.13;2.90;;;;;;;18.89;90.33;94807.53;5113473;28;20165;-74
2022/07/09 05:55:14;;;;;;;4.75;2.80;;;;;;;18.94;91.03;94807.56;5112264;28;20164;-74
2022/07/09 05:57:39;;;;;;;6.85;2.85;;;;;;;19.01;90.44;94803.56;5113408;28;20252;-74
2022/07/09 06:00:07;;;;;;;2.30;1.98;;;;;;;18.76;89.43;94782.19;5113567;28;20878;-74
2022/07/09 06:02:32;;;;;;;2.70;2.50;;;;;;;18.88;90.40;94808.59;5113520;28;20982;-74
2022/07/09 06:04:57;;;;;;;3.95;2.85;;;;;;;18.93;91.30;94803.28;5113367;28;20184;-74
2022/07/09 06:07:23;;;;;;;3.50;1.90;;;;;;;18.88;91.09;94789.94;5113297;28;20173;-75
2022/07/09 06:09:48;;;;;;;3.63;2.92;;;;;;;18.97;90.79;94807.81;5113191;28;20191;-74
2022/07/09 06:12:14;;;;;;;2.00;1.90;;;;;;;18.97;90.57;94807.81;5112943;28;20159;-75
2022/07/09 06:14:39;;;;;;;3.22;2.10;;;;;;;18.90;90.18;94809.16;5113181;28;20173;-75
2022/07/09 06:17:07;;;;;;;2.17;1.98;;;;;;;18.94;90.61;94813.69;5113518;28;20271;-75
2022/07/09 06:19:36;;;;;;;2.40;2.20;;;;;;;18.83;90.90;94796.06;5113493;28;20220;-75
2022/07/09 06:22:03;;;;;;;2.45;2.25;;;;;;;18.90;90.77;94812.63;5113217;28;20183;-75
2022/07/09 06:24:29;;;;;;;4.13;2.83;;;;;;;18.90;91.24;94817.94;5112649;28;20201;-74
2022/07/09 06:26:55;;;;;;;5.05;3.88;;;;;;;18.89;91.26;94812.88;5112679;28;20600;-74
2022/07/09 06:29:21;;;;;;;17.60;11.65;;;;;;;18.78;91.71;94796.03;5112680;28;20169;-74
2022/07/09 06:31:46;;;;;;;6.43;4.53;;;;;;;18.93;92.35;94817.44;5112545;28;20230;-76
2022/07/09 06:34:12;;;;;;;4.07;2.67;;;;;;;19.01;91.76;94813.44;5112595;28;20176;-74
2022/07/09 06:36:38;;;;;;;4.70;3.28;;;;;;;19.02;91.00;94809.72;5112448;28;20165;-74
2022/07/09 06:41:48;;;;;;;3.55;2.53;;;;;;;18.96;91.61;94810.75;5112741;28;20184;-74
2022/07/09 06:44:13;;;;;;;5.00;4.25;;;;;;;19.10;91.19;94819.88;5112404;28;20157;-74
2022/07/09 06:46:39;;;;;;;2.60;2.40;;;;;;;19.05;90.74;94817.97;5112626;28;20176;-74
2022/07/09 06:49:04;;;;;;;3.45;3.15;;;;;;;19.05;91.04;94825.97;5112563;28;20165;-74
2022/07/09 06:51:30;;;;;;;5.35;3.70;;;;;;;19.04;90.78;94827.03;5112060;28;20188;-74
2022/07/09 06:53:55;;;;;;;3.42;2.80;;;;;;;19.09;91.11;94827.06;5112145;28;20173;-74
2022/07/09 06:56:22;;;;;;;4.25;3.85;;;;;;;19.14;90.50;94819.06;5111940;28;20579;-74
2022/07/09 06:58:47;;;;;;;4.30;3.90;;;;;;;19.12;90.65;94820.38;5112059;28;20216;-74
2022/07/09 07:01:13;;;;;;;5.63;4.15;;;;;;;19.16;90.94;94824.13;5112035;28;20200;-74
2022/07/09 07:03:38;;;;;;;3.95;3.38;;;;;;;19.20;90.52;94822.53;5112019;28;20640;-73
2022/07/09 07:06:04;;;;;;;3.30;3.00;;;;;;;19.23;90.38;94822.81;5111587;28;20165;-77
2022/07/09 07:08:29;;;;;;;4.18;2.78;;;;;;;19.28;89.99;94827.38;5111845;28;20157;-76
2022/07/09 07:10:55;;;;;;;3.35;2.63;;;;;;;19.30;90.41;94824.41;5111745;28;20547;-76
2022/07/09 07:13:20;;;;;;;3.40;3.10;;;;;;;19.32;89.95;94817.75;5111822;28;20658;-74
2022/07/09 07:15:49;;;;;;;3.58;3.28;;;;;;;19.23;90.19;94825.47;5111721;28;20176;-73
2022/07/09 07:18:17;;;;;;;6.03;5.20;;;;;;;19.19;90.85;94829.75;5111555;28;20164;-75
2022/07/09 07:20:45;;;;;;;11.45;10.18;;;;;;;19.08;91.40;94800.66;5111739;28;20200;-75
2022/07/09 07:23:11;;;;;;;13.05;10.32;;;;;;;19.40;92.03;94821.75;5111536;28;20242;-75
2022/07/09 07:25:36;;;;;;;18.98;15.35;;;;;;;19.54;92.13;94826.34;5108732;27;20653;-75
2022/07/09 07:28:03;;;;;;;11.23;9.43;;;;;;;19.64;90.46;94822.84;5111394;28;20177;-76
2022/07/09 07:30:32;;;;;;;8.90;7.35;;;;;;;19.75;90.43;94818.31;5114317;27;20539;-75
2022/07/09 07:32:58;;;;;;;6.10;5.50;;;;;;;19.74;90.25;94798.81;5131412;27;20168;-76
2022/07/09 07:35:23;;;;;;;3.72;3.38;;;;;;;20.00;89.09;94825.50;5129661;27;20251;-76
2022/07/09 07:37:49;;;;;;;4.32;2.97;;;;;;;19.93;88.43;94799.06;5113988;27;20180;-75
2022/07/09 07:40:14;;;;;;;3.20;2.80;;;;;;;20.21;88.78;94827.88;5108195;28;20213;-78
2022/07/09 07:42:39;;;;;;;2.97;2.72;;;;;;;20.40;88.52;94822.75;5121088;27;20645;-76
2022/07/09 07:45:05;;;;;;;4.38;3.33;;;;;;;20.60;87.91;94822.66;5115551;27;20183;-76
2022/07/09 07:47:31;;;;;;;4.10;3.22;;;;;;;20.70;87.21;94821.81;5117459;27;20168;-76
2022/07/09 07:49:56;;;;;;;4.32;3.42;;;;;;;20.84;86.41;94820.19;5111754;27;20165;-76
2022/07/09 07:52:22;;;;;;;2.65;2.45;;;;;;;20.85;84.71;94820.94;5117328;27;20645;-77
2022/07/09 07:54:47;;;;;;;3.78;2.20;;;;;;;20.83;84.52;94829.28;5131612;27;20188;-77
2022/07/09 07:57:12;;;;;;;2.97;2.42;;;;;;;20.83;83.80;94831.94;5129601;27;20168;-75
2022/07/09 07:59:38;;;;;;;2.83;2.63;;;;;;;20.76;83.17;94817.28;5110030;28;20271;-78
2022/07/09 08:02:03;;;;;;;2.97;2.50;;;;;;;20.68;84.47;94810.59;5115844;27;20169;-77
2022/07/09 08:04:29;;;;;;;2.58;1.98;;;;;;;20.71;84.36;94829.59;5122411;27;20190;-77
2022/07/09 08:06:54;;;;;;;4.88;3.75;;;;;;;20.64;83.87;94831.75;5124670;28;20172;-77
2022/07/09 08:09:20;;;;;;;8.80;5.75;;;;;;;20.45;83.79;94800.53;5131552;27;20164;-77
2022/07/09 08:11:46;;;;;;;3.42;3.08;;;;;;;20.46;83.98;94819.00;5126407;27;20169;-78
2022/07/09 08:14:11;;;;;;;5.13;3.92;;;;;;;20.55;85.78;94827.25;5123671;28;20191;-77
2022/07/09 08:16:37;;;;;;;5.82;4.47;;;;;;;20.59;86.36;94829.09;5127159;28;20206;-76
2022/07/09 08:19:02;;;;;;;2.65;2.45;;;;;;;20.82;85.77;94818.84;5113178;28;20196;-76
2022/07/09 08:21:28;;;;;;;2.72;2.30;;;;;;;21.12;84.97;94823.22;5114827;28;20222;-76
2022/07/09 08:23:56;;;;;;;3.00;2.70;;;;;;;21.30;83.34;94830.63;5114746;28;20177;-76
2022/07/09 08:26:25;;;;;;;5.72;2.85;;;;;;;21.48;84.19;94823.81;5114755;28;20208;-76
2022/07/09 08:28:52;;;;;;;3.92;2.95;;;;;;;21.59;80.50;94825.34;5114481;28;20169;-76
2022/07/09 08:31:19;;;;;;;2.90;2.70;;;;;;;21.55;80.34;94810.88;5114434;28;20169;-76
2022/07/09 08:33:45;;;;;;;3.00;2.70;;;;;;;21.64;80.86;94812.69;5114564;28;20268;-76
2022/07/09 08:36:11;;;;;;;3.55;3.17;;;;;;;21.67;79.31;94816.69;5112921;28;20169;-77
2022/07/09 08:38:36;;;;;;;3.30;3.00;;;;;;;21.67;79.39;94827.41;5115018;28;20204;-76
2022/07/09 08:41:05;;;;;;;4.80;4.25;;;;;;;21.70;79.17;94827.66;5110990;28;20235;-76
2022/07/09 08:43:34;;;;;;;4.68;3.97;;;;;;;21.64;79.79;94806.53;5112304;28;20220;-78
2022/07/09 08:46:00;;;;;;;7.90;6.43;;;;;;;21.68;78.70;94831.69;5114266;28;20287;-76
2022/07/09 08:48:25;;;;;;;6.85;4.28;;;;;;;21.53;79.73;94821.91;5095551;28;20969;-77
2022/07/09 08:50:52;;;;;;;5.57;4.43;;;;;;;21.49;80.33;94836.91;5116517;27;20181;-76
2022/07/09 08:53:19;;;;;;;13.68;8.98;;;;;;;21.46;81.38;94830.25;5113624;28;20534;-77
2022/07/09 08:55:45;;;;;;;6.85;5.18;;;;;;;21.25;81.46;94815.41;5122586;27;20180;-74
2022/07/09 08:58:14;;;;;;;5.93;4.90;;;;;;;21.34;81.32;94835.16;5114089;27;20255;-78
2022/07/09 09:00:41;;;;;;;16.95;9.93;;;;;;;21.30;81.11;94834.09;5113853;28;20223;-77
2022/07/09 09:03:07;;;;;;;13.02;8.10;;;;;;;21.23;82.17;94825.59;5113940;28;20173;-75
2022/07/09 09:05:33;;;;;;;15.88;6.15;;;;;;;21.23;82.00;94836.28;5130814;27;20619;-76
2022/07/09 09:07:59;;;;;;;10.75;5.30;;;;;;;21.16;82.45;94838.47;5134517;27;20219;-76
2022/07/09 09:10:27;;;;;;;16.52;12.10;;;;;;;21.04;83.14;94829.94;5131331;27;20612;-76
2022/07/09 09:12:57;;;;;;;7.35;5.72;;;;;;;21.03;83.75;94826.47;5122902;27;20258;-75
2022/07/09 09:15:23;;;;;;;9.20;6.72;;;;;;;21.01;84.35;94835.88;5117608;27;20182;-75
2022/07/09 09:17:48;;;;;;;7.10;5.38;;;;;;;20.95;84.26;94831.59;5113376;28;20189;-75
2022/07/09 09:20:15;;;;;;;7.30;5.40;;;;;;;20.88;83.76;94836.47;5111523;28;20193;-76
2022/07/09 09:22:53;;;;;;;6.35;5.00;;;;;;;20.82;84.42;94843.72;5113081;28;20608;-76
2022/07/09 09:25:20;;;;;;;5.88;4.10;;;;;;;20.74;84.58;94833.59;5112861;28;20187;-76
2022/07/09 09:27:59;;;;;;;6.80;4.88;;;;;;;20.73;84.92;94836.53;5114868;27;20177;-76
2022/07/09 09:30:26;;;;;;;13.23;8.77;;;;;;;20.79;85.11;94832.75;5118422;27;20610;-77
2022/07/09 09:32:58;;;;;;;8.85;5.18;;;;;;;20.94;85.39;94830.00;5120871;27;20181;-77
2022/07/09 09:35:25;;;;;;;9.85;6.95;;;;;;;20.76;84.62;94817.28;5095303;28;20181;-77
2022/07/09 09:37:51;;;;;;;9.82;6.13;;;;;;;20.87;85.49;94829.50;5124628;27;20177;-77
2022/07/09 09:40:17;;;;;;;8.85;5.38;;;;;;;20.94;85.84;94827.31;5123034;27;20700;-77
2022/07/09 09:42:45;;;;;;;4.20;3.83;;;;;;;20.97;84.70;94837.50;5121964;27;20657;-76
2022/07/09 09:45:14;;;;;;;3.20;2.90;;;;;;;20.97;83.73;94832.13;5132814;27;20215;-76
2022/07/09 09:47:51;;;;;;;5.35;4.22;;;;;;;20.99;84.30;94836.16;5134041;27;20221;-76
2022/07/09 09:50:22;;;;;;;8.95;6.05;;;;;;;20.98;84.72;94836.41;5126782;27;20199;-76
2022/07/09 09:52:49;;;;;;;16.35;9.75;;;;;;;20.97;84.84;94840.16;5133826;27;20180;-76
2022/07/09 09:55:16;;;;;;;10.80;5.13;;;;;;;20.92;84.48;94832.97;5134018;27;20255;-77
2022/07/09 09:57:42;;;;;;;7.60;5.55;;;;;;;20.88;84.38;94839.13;5117700;27;20696;-77
2022/07/09 10:00:10;;;;;;;3.75;3.42;;;;;;;20.77;84.25;94846.41;5127679;27;20298;-77
2022/07/09 10:02:38;;;;;;;4.72;3.30;;;;;;;20.68;84.16;94834.66;5127195;27;20655;-76
2022/07/09 10:05:03;;;;;;;6.65;4.40;;;;;;;20.63;85.53;94837.38;5133721;27;20203;-77
2022/07/09 10:07:31;;;;;;;3.05;2.75;;;;;;;20.62;85.57;94828.56;5133698;27;20208;-77
2022/07/09 10:09:58;;;;;;;6.95;4.88;;;;;;;20.60;85.84;94836.03;5119066;27;20173;-77
2022/07/09 10:12:29;;;;;;;4.80;3.60;;;;;;;20.59;86.31;94834.44;5120622;27;20208;-77
2022/07/09 10:14:55;;;;;;;5.20;3.13;;;;;;;20.54;86.28;94831.78;5133918;27;20183;-77
2022/07/09 10:17:20;;;;;;;4.97;3.20;;;;;;;20.52;86.43;94833.94;5131256;27;20176;-77
2022/07/09 10:20:04;;;;;;;3.92;3.03;;;;;;;20.56;86.84;94836.88;5129903;27;20193;-76
2022/07/09 10:22:45;;;;;;;6.72;2.97;;;;;;;20.29;86.26;94807.78;5112708;28;20176;-76
2022/07/09 10:25:14;;;;;;;6.15;3.17;;;;;;;20.47;87.05;94839.31;5128256;27;20168;-76
2022/07/09 10:27:48;;;;;;;5.00;3.10;;;;;;;20.48;87.53;94835.56;5119351;27;20230;-76
2022/07/09 10:30:24;;;;;;;4.47;2.90;;;;;;;20.34;87.56;94813.94;5117950;27;20229;-76
2022/07/09 10:33:12;;;;;;;3.55;3.00;;;;;;;20.58;87.00;94843.53;5125569;27;20233;-76
2022/07/09 10:35:45;;;;;;;6.03;3.08;;;;;;;20.67;86.82;94846.44;5112582;28;20188;-76
2022/07/09 10:38:11;;;;;;;5.25;2.70;;;;;;;20.73;86.93;94844.56;5112254;28;20258;-76
2022/07/09 10:40:44;;;;;;;2.72;2.42;;;;;;;20.77;87.07;94856.31;5111241;28;20573;-75
2022/07/09 10:43:11;;;;;;;1.90;1.80;;;;;;;20.69;85.28;94855.00;5093553;28;20322;-75
2022/07/09 10:45:44;;;;;;;2.50;1.98;;;;;;;20.66;85.83;94851.03;5113942;27;20179;-75
2022/07/09 10:48:12;;;;;;;5.30;2.45;;;;;;;20.65;85.39;94854.78;5111719;28;20185;-75
2022/07/09 10:50:46;;;;;;;2.47;1.90;;;;;;;20.41;84.55;94826.25;5110627;28;20263;-75
2022/07/09 10:53:12;;;;;;;2.15;1.50;;;;;;;20.57;84.83;94863.38;5110875;28;20268;-75
2022/07/09 10:55:41;;;;;;;2.67;1.80;;;;;;;20.44;84.55;94855.09;5110240;28;20196;-75
2022/07/09 10:58:19;;;;;;;2.70;1.45;;;;;;;20.43;84.54;94861.50;5110693;28;20661;-75
2022/07/09 11:00:53;;;;;;;2.70;2.13;;;;;;;20.21;83.80;94827.88;5110574;28;20858;-75
2022/07/09 11:03:24;;;;;;;1.80;1.70;;;;;;;20.35;84.05;94870.91;5110351;28;20256;-75
2022/07/09 11:05:50;;;;;;;1.67;1.58;;;;;;;20.38;83.55;94858.88;5110312;28;20213;-75
2022/07/09 11:08:16;;;;;;;2.95;1.77;;;;;;;20.35;84.72;94838.81;5110848;28;20616;-75
2022/07/09 11:10:41;;;;;;;2.90;1.80;;;;;;;20.58;85.10;94859.59;5111558;28;20613;-75
2022/07/09 11:13:09;;;;;;;1.92;1.83;;;;;;;20.69;84.90;94861.16;5111486;28;20168;-75
2022/07/09 11:15:35;;;;;;;1.88;1.77;;;;;;;20.80;83.73;94858.44;5111484;28;20169;-75
2022/07/09 11:18:08;;;;;;;4.45;1.70;;;;;;;20.82;82.30;94864.34;5111303;28;20560;-75
2022/07/09 11:20:45;;;;;;;2.67;1.60;;;;;;;20.84;82.41;94870.22;5111427;28;20193;-75
2022/07/09 11:23:11;;;;;;;3.22;1.92;;;;;;;20.78;82.17;94868.63;5111402;28;20638;-75
2022/07/09 11:25:37;;;;;;;2.65;1.65;;;;;;;20.74;81.69;94870.25;5111250;28;20218;-75
2022/07/09 11:28:03;;;;;;;4.40;1.58;;;;;;;20.51;81.57;94871.66;5111598;28;20181;-75
2022/07/09 11:30:29;;;;;;;1.80;1.70;;;;;;;20.40;81.70;94870.91;5111162;28;20177;-75